Terminal Aerodrome Forecast
Issued by NWS

Home | Current Version | Previous Version | Text Only | Print | Product List | Glossary On
Versions: 1 2 3 4 5 6 7 8 9 10 11 12 13 14 15 16 17 18
635
FTUS41 KBTV 202327
TAFMPV
TAF
KMPV 202327Z 2100/2124 16004KT P6SM OVC010
     FM210600 VRB03KT P6SM OVC007
     FM210800 00000KT 4SM BR BKN006 OVC010
     FM211400 VRB03KT P6SM SCT005 OVC012
     FM212000 29004KT P6SM OVC015=

USA.gov is the U.S. government's official web portal to all federal, state and local government web resources and services.